Time;durP1;ratioP1;P1;durP2;ratioP2;P2;SDS_P1;SDS_P2;PMS_P1;PMS_P2;Temp;Humidity;BMP_temperature;BMP_pressure;BME280_temperature;BME280_humidity;BME280_pressure;Samples;Min_cycle;Max_cycle;Signal;HPM_P1;HPM_P2
2023/11/21 00:02:09;;;;;;;7.17;3.00;;;10.70;42.50;;;;;;10283945;28;20236;-76
2023/11/21 00:07:14;;;;;;;5.47;2.70;;;10.60;42.70;;;;;;10282923;28;20358;-75
2023/11/21 00:12:18;;;;;;;4.87;2.77;;;10.50;43.10;;;;;;10281726;28;20237;-76
2023/11/21 00:17:21;;;;;;;4.60;2.97;;;10.40;42.90;;;;;;10281632;28;20233;-76
2023/11/21 00:22:25;;;;;;;7.63;2.90;;;10.40;43.10;;;;;;10265371;28;20236;-75
2023/11/21 00:27:29;;;;;;;5.43;2.60;;;10.40;43.50;;;;;;10278152;28;20235;-77
2023/11/21 00:32:32;;;;;;;6.47;3.17;;;10.40;43.30;;;;;;10273527;28;20239;-78
2023/11/21 00:37:38;;;;;;;6.77;2.80;;;10.40;43.40;;;;;;10275135;28;20258;-77
2023/11/21 00:42:42;;;;;;;3.97;2.67;;;10.40;43.90;;;;;;10291331;28;20239;-76
2023/11/21 00:47:45;;;;;;;4.20;2.80;;;10.50;43.60;;;;;;10271033;28;20236;-76
2023/11/21 00:52:51;;;;;;;3.67;2.93;;;10.60;43.60;;;;;;10278055;28;20231;-76
2023/11/21 00:57:54;;;;;;;6.20;3.43;;;10.70;44.00;;;;;;10280151;28;20355;-76
2023/11/21 01:02:58;;;;;;;7.33;4.30;;;10.80;43.60;;;;;;10283799;28;20244;-77
2023/11/21 01:08:02;;;;;;;6.00;2.90;;;10.90;43.50;;;;;;10277265;28;20259;-76
2023/11/21 01:13:07;;;;;;;4.20;2.67;;;10.90;43.60;;;;;;10278723;28;20263;-76
2023/11/21 01:18:10;;;;;;;4.90;2.47;;;11.00;43.30;;;;;;10282662;28;20236;-76
2023/11/21 01:23:14;;;;;;;9.37;4.90;;;11.00;43.20;;;;;;10279401;28;20243;-76
2023/11/21 01:28:18;;;;;;;5.97;3.50;;;11.00;43.50;;;;;;10285165;28;20228;-75
2023/11/21 01:33:21;;;;;;;5.63;3.50;;;11.00;43.20;;;;;;10280821;28;20236;-76
2023/11/21 01:38:25;;;;;;;12.17;7.57;;;11.00;43.30;;;;;;10274134;28;20271;-76
2023/11/21 01:43:30;;;;;;;10.07;6.10;;;11.10;43.60;;;;;;10275049;28;20320;-77
2023/11/21 01:48:34;;;;;;;7.33;4.07;;;11.20;43.50;;;;;;10274635;28;20220;-77
2023/11/21 01:53:40;;;;;;;5.27;2.80;;;11.20;43.40;;;;;;10274113;28;20294;-78
2023/11/21 01:58:46;;;;;;;3.90;2.43;;;11.30;43.60;;;;;;10272671;28;20668;-77
2023/11/21 02:03:50;;;;;;;4.33;2.40;;;11.30;43.40;;;;;;10279546;28;20220;-76
2023/11/21 02:08:55;;;;;;;4.03;2.40;;;11.30;43.20;;;;;;10276062;28;20224;-76
2023/11/21 02:14:00;;;;;;;3.80;2.40;;;11.20;43.50;;;;;;10275528;28;20587;-76
2023/11/21 02:19:06;;;;;;;5.73;2.97;;;11.20;43.60;;;;;;10270819;28;20310;-76
2023/11/21 02:24:10;;;;;;;4.63;2.60;;;11.30;43.50;;;;;;10282308;28;20265;-77
2023/11/21 02:29:18;;;;;;;3.47;2.63;;;11.30;43.60;;;;;;10266275;28;20246;-77
2023/11/21 02:34:23;;;;;;;4.00;1.90;;;11.30;43.20;;;;;;10284117;28;20232;-77
2023/11/21 02:39:28;;;;;;;4.73;2.30;;;11.30;43.30;;;;;;10279731;28;20245;-78
2023/11/21 02:44:31;;;;;;;5.90;2.40;;;11.40;43.50;;;;;;10279855;28;20250;-77
2023/11/21 02:49:35;;;;;;;4.67;2.40;;;11.40;43.30;;;;;;10281254;28;20227;-77
2023/11/21 02:54:40;;;;;;;3.17;2.20;;;11.40;43.30;;;;;;10280480;28;20970;-77
2023/11/21 02:59:43;;;;;;;2.57;2.27;;;11.30;43.60;;;;;;10279159;28;20227;-76
2023/11/21 03:04:48;;;;;;;5.30;2.67;;;11.40;43.50;;;;;;10277984;28;20257;-77
2023/11/21 03:09:52;;;;;;;5.40;3.30;;;11.40;43.50;;;;;;10276053;28;20271;-77
2023/11/21 03:14:55;;;;;;;3.77;2.33;;;11.40;43.80;;;;;;10283856;28;20230;-77
2023/11/21 03:19:59;;;;;;;4.17;2.40;;;11.40;43.60;;;;;;10273342;28;20672;-77
2023/11/21 03:25:04;;;;;;;5.03;2.43;;;11.40;43.70;;;;;;10270421;28;20228;-78
2023/11/21 03:30:10;;;;;;;5.20;2.27;;;11.40;43.90;;;;;;10272738;28;20315;-77
2023/11/21 03:35:14;;;;;;;4.63;2.33;;;11.40;43.90;;;;;;10279717;28;20592;-77
2023/11/21 03:40:20;;;;;;;3.67;2.13;;;11.50;43.70;;;;;;10278444;28;20231;-77
2023/11/21 03:45:24;;;;;;;3.00;1.80;;;11.40;43.90;;;;;;10274795;28;20240;-77
2023/11/21 03:50:27;;;;;;;3.27;2.17;;;11.40;43.90;;;;;;10278921;28;20242;-76
2023/11/21 03:55:32;;;;;;;4.77;1.90;;;11.50;44.10;;;;;;10273666;28;20757;-76
2023/11/21 04:00:35;;;;;;;2.97;1.97;;;11.50;44.10;;;;;;10279645;28;20247;-77
2023/11/21 04:05:38;;;;;;;2.53;2.03;;;11.50;43.90;;;;;;10278944;28;20233;-77
2023/11/21 04:10:43;;;;;;;2.83;2.50;;;11.60;44.10;;;;;;10283222;28;20250;-77
2023/11/21 04:15:46;;;;;;;2.70;1.93;;;11.60;44.20;;;;;;10277627;28;20742;-76
2023/11/21 04:20:50;;;;;;;3.83;2.00;;;11.60;43.90;;;;;;10284000;28;20701;-77
2023/11/21 04:25:57;;;;;;;3.67;2.23;;;11.70;44.00;;;;;;10287355;28;20215;-77
2023/11/21 04:31:00;;;;;;;4.77;2.20;;;11.70;44.10;;;;;;10275905;28;20852;-77
2023/11/21 04:36:03;;;;;;;2.80;2.20;;;11.70;43.80;;;;;;10265838;28;20223;-76
2023/11/21 04:41:09;;;;;;;4.20;2.10;;;11.80;43.80;;;;;;10280699;28;20235;-76
2023/11/21 04:46:12;;;;;;;3.37;2.00;;;11.80;44.10;;;;;;10276728;28;20769;-76
2023/11/21 04:51:15;;;;;;;3.20;1.70;;;11.80;43.70;;;;;;10278769;28;20235;-76
2023/11/21 04:56:20;;;;;;;2.60;2.20;;;11.80;43.70;;;;;;10275017;28;20227;-76
2023/11/21 05:01:23;;;;;;;3.87;2.10;;;11.80;43.90;;;;;;10276451;28;20247;-76
2023/11/21 05:06:26;;;;;;;3.70;1.80;;;11.80;43.80;;;;;;10276928;28;21081;-76
2023/11/21 05:11:31;;;;;;;2.97;2.40;;;11.80;43.90;;;;;;10272377;28;20249;-76
2023/11/21 05:16:35;;;;;;;4.40;3.40;;;11.80;44.10;;;;;;10284220;28;20668;-76
2023/11/21 05:21:38;;;;;;;4.37;3.13;;;11.80;43.80;;;;;;10272473;28;20232;-76
2023/11/21 05:26:42;;;;;;;6.13;3.43;;;11.70;43.70;;;;;;10284089;28;20602;-76
2023/11/21 05:31:46;;;;;;;5.77;3.67;;;11.70;44.10;;;;;;10279967;28;20228;-75
2023/11/21 05:36:49;;;;;;;4.20;3.67;;;11.60;43.90;;;;;;10281963;28;20604;-76
2023/11/21 05:41:54;;;;;;;5.20;3.50;;;11.60;44.00;;;;;;10285937;28;20223;-76
2023/11/21 05:46:58;;;;;;;4.67;3.17;;;11.50;44.20;;;;;;10293669;28;20286;-75
2023/11/21 05:52:02;;;;;;;4.63;2.90;;;11.50;44.10;;;;;;10273352;28;20248;-74
2023/11/21 05:57:06;;;;;;;5.10;1.90;;;11.50;44.10;;;;;;10267810;28;20296;-75
2023/11/21 06:02:10;;;;;;;3.40;1.83;;;11.50;44.40;;;;;;10277167;28;20235;-74
2023/11/21 06:07:13;;;;;;;3.20;1.90;;;11.60;44.20;;;;;;10278372;28;20336;-74
2023/11/21 06:12:20;;;;;;;4.43;1.80;;;11.50;44.10;;;;;;10276260;28;20235;-74
2023/11/21 06:17:24;;;;;;;5.73;1.97;;;11.50;44.30;;;;;;10273769;28;20644;-74
2023/11/21 06:22:30;;;;;;;4.10;1.87;;;11.50;44.20;;;;;;10273069;28;20243;-74
2023/11/21 06:27:37;;;;;;;3.00;2.00;;;11.50;44.10;;;;;;10285291;28;20313;-74
2023/11/21 06:32:40;;;;;;;3.20;1.80;;;11.50;45.40;;;;;;10270809;28;20224;-75
2023/11/21 06:37:47;;;;;;;2.67;1.70;;;11.60;44.60;;;;;;10267069;28;20654;-75
2023/11/21 06:42:54;;;;;;;4.57;2.50;;;11.60;44.10;;;;;;10273217;28;20673;-75
2023/11/21 06:47:57;;;;;;;3.77;2.60;;;11.60;44.10;;;;;;10267652;28;20327;-74
2023/11/21 06:53:03;;;;;;;2.80;2.07;;;11.50;43.90;;;;;;10272632;28;20227;-74
2023/11/21 06:58:08;;;;;;;7.13;4.40;;;11.50;44.00;;;;;;10261308;28;20793;-74
2023/11/21 07:03:11;;;;;;;5.70;2.60;;;11.40;44.40;;;;;;10270108;28;20238;-74
2023/11/21 07:08:14;;;;;;;4.17;1.83;;;11.30;44.30;;;;;;10265964;28;20639;-74
2023/11/21 07:13:19;;;;;;;2.47;1.90;;;11.30;44.60;;;;;;10270026;28;20240;-74
2023/11/21 07:18:22;;;;;;;4.30;1.90;;;11.30;45.00;;;;;;10267639;28;20322;-73
2023/11/21 07:23:26;;;;;;;3.03;2.20;;;11.30;44.80;;;;;;10264699;28;20237;-73
2023/11/21 07:28:31;;;;;;;3.87;2.40;;;11.30;44.90;;;;;;10269774;28;20318;-75
2023/11/21 07:33:34;;;;;;;3.20;2.63;;;11.30;45.20;;;;;;10261003;28;20277;-73
2023/11/21 07:38:37;;;;;;;3.80;2.23;;;11.30;44.90;;;;;;10262581;28;20606;-73
2023/11/21 07:43:42;;;;;;;5.37;2.57;;;11.40;45.00;;;;;;10265426;28;20320;-73
2023/11/21 07:48:46;;;;;;;2.77;2.00;;;11.30;45.10;;;;;;10267666;28;20283;-73
2023/11/21 07:53:49;;;;;;;4.23;2.30;;;11.30;45.10;;;;;;10266452;28;20232;-73
2023/11/21 07:58:54;;;;;;;5.17;2.00;;;11.30;45.10;;;;;;10266409;28;20260;-73
2023/11/21 08:04:01;;;;;;;3.17;1.83;;;11.30;45.60;;;;;;10267010;28;20236;-73
2023/11/21 08:09:05;;;;;;;3.20;1.80;;;11.30;45.10;;;;;;10264525;28;20224;-73
2023/11/21 08:14:09;;;;;;;3.97;2.17;;;11.30;45.20;;;;;;10263736;28;20242;-73
2023/11/21 08:19:13;;;;;;;3.20;2.17;;;11.30;45.50;;;;;;10267795;28;20219;-72
2023/11/21 08:24:16;;;;;;;2.13;1.57;;;11.20;45.40;;;;;;10265096;28;20302;-73
2023/11/21 08:29:20;;;;;;;3.73;1.80;;;11.10;45.50;;;;;;10265998;28;20231;-74
2023/11/21 08:34:24;;;;;;;3.23;1.90;;;11.10;46.00;;;;;;10267127;28;20579;-74
2023/11/21 08:39:27;;;;;;;4.03;1.80;;;11.10;45.70;;;;;;10266637;28;20235;-74
2023/11/21 08:44:31;;;;;;;2.57;2.03;;;11.10;45.90;;;;;;10267090;28;20259;-75
2023/11/21 08:49:35;;;;;;;2.93;2.03;;;11.10;46.30;;;;;;10265644;28;20322;-74
2023/11/21 08:54:38;;;;;;;6.27;2.60;;;11.20;46.10;;;;;;10269564;28;20287;-74
2023/11/21 08:59:42;;;;;;;2.63;2.00;;;11.20;46.20;;;;;;10274056;28;20282;-74
2023/11/21 09:04:46;;;;;;;3.73;2.00;;;11.30;46.70;;;;;;10278213;28;20236;-74
2023/11/21 09:09:50;;;;;;;2.90;2.00;;;11.30;46.30;;;;;;10274414;28;20243;-74
2023/11/21 09:14:55;;;;;;;4.03;1.80;;;11.40;46.00;;;;;;10277167;28;20294;-73
2023/11/21 09:19:58;;;;;;;3.27;2.10;;;11.50;46.30;;;;;;10273125;28;20235;-74
2023/11/21 09:25:04;;;;;;;3.47;2.67;;;11.50;46.30;;;;;;10273807;28;20253;-74
2023/11/21 09:30:10;;;;;;;3.30;2.00;;;11.50;46.10;;;;;;10277338;28;20266;-74
2023/11/21 09:35:14;;;;;;;2.33;2.00;;;11.60;46.50;;;;;;10273801;28;20227;-74
2023/11/21 09:40:22;;;;;;;2.63;1.60;;;11.70;46.20;;;;;;10275149;28;20228;-74
2023/11/21 09:45:29;;;;;;;3.27;1.80;;;11.80;46.80;;;;;;10273661;28;20240;-74
2023/11/21 09:50:33;;;;;;;2.97;2.30;;;11.90;46.10;;;;;;10269188;28;20243;-74
2023/11/21 09:55:38;;;;;;;2.40;2.07;;;11.90;45.80;;;;;;10278437;28;20240;-74
2023/11/21 10:00:44;;;;;;;2.50;2.00;;;12.00;45.90;;;;;;10274910;28;20315;-74
2023/11/21 10:05:51;;;;;;;3.00;2.10;;;12.00;46.10;;;;;;10271135;28;20329;-74
2023/11/21 10:10:55;;;;;;;3.10;2.00;;;12.10;45.90;;;;;;10284504;28;20231;-73
2023/11/21 10:16:03;;;;;;;3.63;1.97;;;12.10;45.90;;;;;;10288047;28;20240;-74
2023/11/21 10:21:07;;;;;;;3.40;1.83;;;12.10;45.90;;;;;;10287285;28;20274;-74
2023/11/21 10:26:16;;;;;;;3.60;1.77;;;12.20;45.80;;;;;;10287403;28;20314;-73
2023/11/21 10:31:36;;;;;;;2.87;1.90;;;12.30;45.60;;;;;;10287364;28;20246;-72
2023/11/21 10:36:39;;;;;;;3.30;1.90;;;12.30;45.50;;;;;;10287139;28;20228;-72
2023/11/21 10:41:42;;;;;;;3.17;2.00;;;12.20;45.30;;;;;;10286812;28;20228;-73
2023/11/21 10:46:50;;;;;;;3.00;1.93;;;12.20;45.40;;;;;;10286587;28;20274;-73
2023/11/21 10:51:54;;;;;;;2.97;2.00;;;12.20;45.70;;;;;;10286822;28;20262;-72
2023/11/21 10:56:59;;;;;;;2.23;1.90;;;12.20;45.50;;;;;;10286593;28;20231;-73
2023/11/21 11:02:15;;;;;;;3.60;1.90;;;12.20;45.80;;;;;;10285647;28;20736;-74
2023/11/21 11:07:21;;;;;;;3.23;2.07;;;12.30;46.30;;;;;;10285923;28;20306;-73
2023/11/21 11:12:25;;;;;;;3.77;2.20;;;12.40;45.80;;;;;;10285514;28;20339;-73
2023/11/21 11:17:32;;;;;;;2.37;2.13;;;12.40;45.80;;;;;;10285719;28;20243;-74
2023/11/21 11:22:42;;;;;;;3.40;2.30;;;12.40;45.80;;;;;;10284060;28;20810;-73
2023/11/21 11:27:52;;;;;;;2.87;2.10;;;12.50;46.10;;;;;;10285064;28;20231;-74
2023/11/21 11:33:12;;;;;;;2.10;1.90;;;12.60;45.80;;;;;;10284792;28;20314;-74
2023/11/21 11:38:15;;;;;;;2.70;2.00;;;12.60;45.70;;;;;;10284768;28;20310;-73
2023/11/21 11:43:26;;;;;;;2.70;2.50;;;12.70;45.50;;;;;;10284560;28;20232;-73
2023/11/21 11:48:31;;;;;;;3.10;2.60;;;12.70;45.60;;;;;;10284804;28;20380;-72
2023/11/21 11:53:39;;;;;;;2.60;2.40;;;12.80;45.20;;;;;;10284452;28;20626;-73
2023/11/21 11:58:42;;;;;;;2.67;2.30;;;12.80;45.20;;;;;;10284228;28;20801;-73
2023/11/21 12:04:31;;;;;;;3.00;2.40;;;12.80;45.30;;;;;;10284334;28;20251;-74
2023/11/21 12:09:35;;;;;;;3.87;2.47;;;12.90;45.50;;;;;;10284108;28;20318;-75
2023/11/21 12:14:38;;;;;;;2.10;1.90;;;12.90;45.20;;;;;;10285008;28;20239;-73
2023/11/21 12:19:43;;;;;;;2.43;1.80;;;12.90;46.10;;;;;;10284252;28;20346;-73
2023/11/21 12:24:46;;;;;;;2.20;2.00;;;13.00;45.70;;;;;;10277567;28;20741;-73
2023/11/21 12:29:50;;;;;;;1.90;1.80;;;13.10;45.20;;;;;;10277999;28;20823;-74
2023/11/21 12:34:54;;;;;;;5.77;4.67;;;13.10;45.20;;;;;;10314126;28;20235;-74
2023/11/21 12:39:57;;;;;;;3.03;2.57;;;13.10;45.20;;;;;;10280685;28;20242;-74
2023/11/21 12:45:20;;;;;;;2.60;2.13;;;13.20;45.30;;;;;;10304893;28;20321;-74
2023/11/21 12:50:28;;;;;;;3.70;3.40;;;13.20;45.60;;;;;;10281226;28;20239;-74
2023/11/21 12:55:37;;;;;;;3.17;2.90;;;13.20;45.50;;;;;;10296201;28;20282;-74
2023/11/21 13:00:43;;;;;;;3.20;2.90;;;13.20;45.40;;;;;;10277398;28;20608;-75
2023/11/21 13:05:50;;;;;;;6.90;6.30;;;13.30;45.30;;;;;;10280032;28;20706;-75
2023/11/21 13:10:57;;;;;;;3.20;2.60;;;13.30;44.80;;;;;;10277943;28;20278;-74
2023/11/21 13:16:04;;;;;;;2.87;2.67;;;13.30;44.50;;;;;;10258194;28;20259;-74
2023/11/21 13:21:13;;;;;;;4.00;1.87;;;13.30;44.60;;;;;;10279786;28;20223;-74
2023/11/21 13:26:16;;;;;;;1.77;1.67;;;13.30;44.70;;;;;;10279874;28;20714;-74
2023/11/21 13:31:26;;;;;;;1.60;1.50;;;13.30;44.70;;;;;;10287213;28;20537;-74
2023/11/21 13:36:33;;;;;;;1.70;1.50;;;13.40;44.70;;;;;;10286957;28;20294;-74
2023/11/21 13:41:38;;;;;;;2.23;1.50;;;13.40;44.50;;;;;;10286532;28;20310;-73
2023/11/21 13:46:42;;;;;;;2.43;2.23;;;13.30;44.50;;;;;;10285053;28;20239;-74
2023/11/21 13:51:50;;;;;;;2.10;1.70;;;13.30;44.40;;;;;;10298528;28;20729;-73
2023/11/21 13:56:54;;;;;;;2.70;1.80;;;13.30;44.70;;;;;;10324945;28;20741;-74
2023/11/21 14:01:59;;;;;;;1.77;1.67;;;13.30;44.60;;;;;;10324765;28;20290;-74
2023/11/21 14:07:20;;;;;;;2.67;1.53;;;13.30;44.70;;;;;;10324384;28;20535;-74
2023/11/21 14:12:23;;;;;;;2.27;1.60;;;13.30;44.80;;;;;;10325210;28;20243;-73
2023/11/21 14:17:27;;;;;;;1.80;1.43;;;13.20;44.60;;;;;;10325015;28;20250;-74
2023/11/21 14:22:31;;;;;;;1.60;1.50;;;13.20;44.80;;;;;;10325339;28;20285;-75
2023/11/21 14:27:35;;;;;;;2.23;1.70;;;13.20;44.80;;;;;;10324834;28;20258;-74
2023/11/21 14:32:39;;;;;;;2.57;1.50;;;13.20;44.70;;;;;;10324346;28;20253;-75
2023/11/21 14:37:44;;;;;;;1.60;1.50;;;13.20;44.50;;;;;;10324418;28;20235;-75
2023/11/21 14:42:47;;;;;;;3.30;2.30;;;13.20;44.80;;;;;;10324800;28;20327;-75
2023/11/21 14:47:58;;;;;;;6.17;5.47;;;13.20;44.80;;;;;;10287627;28;20223;-73
2023/11/21 14:53:05;;;;;;;2.40;2.20;;;13.20;45.00;;;;;;10286147;28;20236;-75
2023/11/21 14:58:12;;;;;;;4.37;3.70;;;13.20;45.00;;;;;;10283729;28;20227;-74
2023/11/21 15:03:36;;;;;;;2.80;2.60;;;13.20;44.90;;;;;;10282516;28;20238;-74
2023/11/21 15:08:43;;;;;;;2.37;2.17;;;13.20;45.10;;;;;;10283285;28;20286;-74
2023/11/21 15:13:48;;;;;;;3.23;2.97;;;13.20;45.30;;;;;;10283246;28;20293;-73
2023/11/21 15:18:51;;;;;;;3.20;2.90;;;13.20;45.20;;;;;;10282183;28;20714;-73
2023/11/21 15:23:56;;;;;;;3.87;3.10;;;13.20;45.20;;;;;;10282607;28;20240;-73
2023/11/21 15:28:59;;;;;;;3.10;2.80;;;13.20;45.30;;;;;;10282608;28;20231;-73
2023/11/21 15:34:05;;;;;;;3.20;2.97;;;13.20;45.20;;;;;;10281307;28;20301;-75
2023/11/21 15:39:10;;;;;;;4.87;4.37;;;13.30;45.20;;;;;;10282880;28;20240;-75
2023/11/21 15:44:13;;;;;;;6.10;5.60;;;13.20;45.20;;;;;;10280327;28;20242;-75
2023/11/21 15:49:21;;;;;;;5.87;4.63;;;13.30;45.30;;;;;;10282969;28;20231;-75
2023/11/21 15:54:27;;;;;;;5.30;4.87;;;13.30;45.30;;;;;;10282918;28;20235;-74
2023/11/21 15:59:31;;;;;;;4.77;3.97;;;13.30;45.20;;;;;;10283244;28;20231;-75
2023/11/21 16:04:36;;;;;;;3.80;3.40;;;13.20;45.00;;;;;;10283117;28;20251;-74
2023/11/21 16:09:42;;;;;;;3.70;3.40;;;13.20;44.90;;;;;;10282239;28;20263;-74
2023/11/21 16:14:47;;;;;;;3.23;3.03;;;13.20;45.00;;;;;;10284083;28;20234;-74
2023/11/21 16:19:52;;;;;;;3.20;3.00;;;13.10;44.90;;;;;;10282542;28;20271;-74
2023/11/21 16:24:56;;;;;;;12.90;11.60;;;13.10;44.90;;;;;;10268138;28;20235;-74
2023/11/21 16:30:00;;;;;;;5.13;4.73;;;13.00;45.10;;;;;;10266285;28;20224;-74
2023/11/21 16:35:03;;;;;;;5.20;4.70;;;13.00;45.20;;;;;;10265754;28;20256;-74
2023/11/21 16:40:09;;;;;;;4.80;4.40;;;13.00;45.30;;;;;;10268241;28;20260;-74
2023/11/21 16:45:12;;;;;;;4.90;4.50;;;13.00;45.50;;;;;;10268055;28;20232;-74
2023/11/21 16:50:16;;;;;;;4.90;4.50;;;13.00;45.40;;;;;;10262518;28;20236;-74
2023/11/21 16:55:20;;;;;;;4.40;4.00;;;13.00;45.40;;;;;;10265623;28;20235;-74
2023/11/21 17:00:23;;;;;;;4.20;3.90;;;13.00;45.30;;;;;;10265982;28;20326;-74
2023/11/21 17:05:27;;;;;;;4.30;3.90;;;13.10;45.30;;;;;;10272477;28;20232;-74
2023/11/21 17:10:31;;;;;;;4.10;3.70;;;13.00;45.30;;;;;;10265236;28;20242;-74
2023/11/21 17:15:34;;;;;;;4.87;4.37;;;13.00;45.40;;;;;;10260286;28;20223;-74
2023/11/21 17:20:37;;;;;;;3.87;3.50;;;13.00;45.50;;;;;;10263696;28;20247;-74
2023/11/21 17:25:42;;;;;;;4.17;3.77;;;13.00;45.50;;;;;;10277303;28;20229;-74
2023/11/21 17:30:45;;;;;;;5.73;3.93;;;13.00;45.60;;;;;;10268823;28;20291;-74
2023/11/21 17:35:49;;;;;;;4.93;4.43;;;13.00;45.60;;;;;;10275246;28;20228;-74
2023/11/21 17:40:53;;;;;;;4.13;3.83;;;13.00;45.70;;;;;;10281763;28;20317;-75
2023/11/21 17:45:58;;;;;;;3.57;3.20;;;13.10;45.60;;;;;;10281021;28;20251;-75
2023/11/21 17:51:01;;;;;;;2.80;2.60;;;13.10;45.30;;;;;;10268643;28;20224;-75
2023/11/21 17:56:06;;;;;;;2.47;2.27;;;13.10;44.90;;;;;;10270845;28;20223;-75
2023/11/21 18:01:09;;;;;;;2.53;1.70;;;13.10;44.80;;;;;;10280097;28;20390;-75
2023/11/21 18:06:14;;;;;;;2.50;1.70;;;13.10;44.50;;;;;;10282822;28;20231;-73
2023/11/21 18:11:19;;;;;;;2.00;1.90;;;13.10;44.60;;;;;;10286692;28;20785;-75
2023/11/21 18:16:22;;;;;;;2.50;1.63;;;13.00;44.50;;;;;;10284062;28;20231;-75
2023/11/21 18:21:26;;;;;;;2.17;1.70;;;13.00;44.40;;;;;;10289409;28;20629;-74
2023/11/21 18:26:30;;;;;;;1.60;1.50;;;12.90;44.20;;;;;;10282647;28;20719;-74
2023/11/21 18:31:33;;;;;;;1.60;1.50;;;13.00;44.30;;;;;;10276233;28;20600;-74
2023/11/21 18:36:36;;;;;;;1.60;1.50;;;12.90;44.20;;;;;;10293355;28;20239;-74
2023/11/21 18:41:41;;;;;;;1.70;1.60;;;12.80;44.30;;;;;;10292842;28;20246;-74
2023/11/21 18:46:44;;;;;;;1.60;1.50;;;12.80;44.20;;;;;;10281727;28;20243;-74
2023/11/21 18:51:48;;;;;;;1.60;1.50;;;12.80;44.40;;;;;;10279525;28;20244;-74
2023/11/21 18:56:54;;;;;;;1.60;1.30;;;12.80;44.40;;;;;;10288268;28;20232;-74
2023/11/21 19:01:57;;;;;;;1.40;1.30;;;12.80;44.50;;;;;;10291897;28;20231;-74
2023/11/21 19:07:02;;;;;;;3.33;1.70;;;12.80;44.70;;;;;;10283473;28;20242;-74
2023/11/21 19:12:08;;;;;;;2.10;1.70;;;12.90;44.50;;;;;;10284878;28;20729;-74
2023/11/21 19:17:11;;;;;;;1.97;1.50;;;12.80;44.00;;;;;;10284370;28;20785;-74
2023/11/21 19:22:14;;;;;;;1.97;1.73;;;12.90;44.20;;;;;;10282379;28;20231;-74
2023/11/21 19:27:20;;;;;;;2.00;1.83;;;12.80;44.20;;;;;;10272907;28;20323;-75
2023/11/21 19:32:23;;;;;;;1.93;1.80;;;12.80;44.00;;;;;;10265899;28;20314;-74
2023/11/21 19:37:27;;;;;;;2.20;2.00;;;12.80;43.80;;;;;;10263758;28;20298;-74
2023/11/21 19:42:34;;;;;;;3.17;2.17;;;12.70;44.00;;;;;;10261346;28;20239;-74
2023/11/21 19:47:38;;;;;;;2.80;2.60;;;12.70;44.00;;;;;;10270897;28;20255;-74
2023/11/21 19:52:42;;;;;;;2.17;2.00;;;12.70;43.90;;;;;;10290229;28;20803;-74
2023/11/21 19:57:47;;;;;;;2.40;2.20;;;12.60;43.90;;;;;;10278196;28;20258;-75
2023/11/21 20:02:50;;;;;;;2.63;2.43;;;12.60;43.90;;;;;;10273470;28;20236;-74
2023/11/21 20:07:53;;;;;;;2.90;2.60;;;12.60;43.90;;;;;;10265637;28;20275;-74
2023/11/21 20:12:58;;;;;;;2.80;2.50;;;12.50;43.90;;;;;;10260847;28;20240;-75
2023/11/21 20:18:04;;;;;;;2.50;2.30;;;12.50;43.90;;;;;;10263764;28;20234;-74
2023/11/21 20:23:07;;;;;;;3.87;2.90;;;12.40;43.80;;;;;;10267332;28;20236;-74
2023/11/21 20:28:12;;;;;;;3.57;2.83;;;12.40;44.00;;;;;;10274735;28;20235;-74
2023/11/21 20:33:16;;;;;;;3.40;3.03;;;12.30;44.00;;;;;;10273727;28;20239;-73
2023/11/21 20:38:20;;;;;;;4.10;2.90;;;12.30;44.00;;;;;;10262620;28;20290;-73
2023/11/21 20:43:25;;;;;;;3.47;3.17;;;12.30;44.00;;;;;;10267852;28;20232;-73
2023/11/21 20:48:28;;;;;;;5.30;3.40;;;12.20;44.20;;;;;;10264281;28;20308;-75
2023/11/21 20:53:32;;;;;;;4.40;3.47;;;12.20;44.00;;;;;;10276238;28;20228;-74
2023/11/21 20:58:37;;;;;;;3.33;2.97;;;12.10;44.00;;;;;;10277432;28;20232;-75
2023/11/21 21:03:40;;;;;;;4.90;3.43;;;12.10;44.20;;;;;;10270483;28;20319;-73
2023/11/21 21:08:44;;;;;;;4.20;3.73;;;12.00;44.20;;;;;;10271781;28;20288;-73
2023/11/21 21:13:52;;;;;;;3.83;3.53;;;12.00;44.30;;;;;;10274455;28;20694;-76
2023/11/21 21:18:58;;;;;;;3.37;3.07;;;11.90;44.50;;;;;;10271344;28;20224;-74
2023/11/21 21:24:02;;;;;;;3.87;3.47;;;11.90;44.70;;;;;;10263097;28;20922;-75
2023/11/21 21:29:08;;;;;;;4.23;3.40;;;12.00;44.80;;;;;;10258997;28;20235;-75
2023/11/21 21:34:13;;;;;;;3.23;2.90;;;12.00;44.50;;;;;;10268252;28;20571;-75
2023/11/21 21:39:17;;;;;;;3.30;2.83;;;12.00;44.50;;;;;;10266747;28;20702;-75
2023/11/21 21:44:22;;;;;;;3.37;3.07;;;12.00;44.40;;;;;;10270583;28;20311;-75
2023/11/21 21:49:26;;;;;;;4.80;2.70;;;12.00;44.20;;;;;;10271518;28;20298;-75
2023/11/21 21:54:29;;;;;;;3.30;3.00;;;12.00;44.20;;;;;;10269926;28;20234;-75
2023/11/21 21:59:33;;;;;;;3.20;2.90;;;12.00;44.20;;;;;;10270715;28;20704;-75
2023/11/21 22:04:39;;;;;;;4.33;3.13;;;11.90;44.20;;;;;;10269991;28;20231;-76
2023/11/21 22:09:42;;;;;;;3.77;3.47;;;11.90;44.20;;;;;;10275536;28;20615;-76
2023/11/21 22:14:47;;;;;;;4.50;4.20;;;11.90;44.40;;;;;;10282096;28;20228;-76
2023/11/21 22:19:51;;;;;;;5.30;4.40;;;11.80;44.60;;;;;;10281995;28;20228;-76
2023/11/21 22:24:55;;;;;;;4.70;3.90;;;11.80;44.70;;;;;;10271671;28;20229;-76
2023/11/21 22:29:59;;;;;;;3.87;3.57;;;11.90;44.80;;;;;;10273069;28;20236;-76
2023/11/21 22:35:03;;;;;;;3.60;3.30;;;11.90;45.00;;;;;;10276387;28;20301;-76
2023/11/21 22:40:08;;;;;;;3.70;3.40;;;11.90;44.90;;;;;;10277423;28;20231;-76
2023/11/21 22:45:12;;;;;;;4.30;3.80;;;12.00;45.00;;;;;;10271838;28;20225;-76
2023/11/21 22:50:15;;;;;;;4.47;3.60;;;12.00;44.70;;;;;;10278315;28;20234;-76
2023/11/21 22:55:19;;;;;;;4.90;4.30;;;12.00;44.50;;;;;;10276029;28;20303;-76
2023/11/21 23:00:29;;;;;;;4.67;4.00;;;12.00;44.50;;;;;;10276442;28;20250;-76
2023/11/21 23:05:33;;;;;;;4.80;4.30;;;11.90;44.50;;;;;;10277713;28;20238;-76
2023/11/21 23:10:38;;;;;;;6.83;3.80;;;11.90;44.40;;;;;;10276487;28;20892;-76
2023/11/21 23:15:46;;;;;;;5.17;3.80;;;11.80;44.20;;;;;;10261344;28;20311;-76
2023/11/21 23:20:49;;;;;;;4.00;3.60;;;11.80;44.50;;;;;;10255187;28;20232;-77
2023/11/21 23:25:54;;;;;;;3.77;3.00;;;11.80;44.50;;;;;;10270678;28;20225;-77
2023/11/21 23:30:59;;;;;;;3.73;3.43;;;11.80;44.80;;;;;;10277973;28;20232;-76
2023/11/21 23:36:02;;;;;;;3.50;2.83;;;11.80;44.80;;;;;;10281454;28;20942;-76
2023/11/21 23:41:05;;;;;;;3.13;2.90;;;11.80;44.40;;;;;;10272525;28;20234;-76
2023/11/21 23:46:10;;;;;;;2.77;2.50;;;11.70;44.10;;;;;;10267213;28;20224;-76
2023/11/21 23:51:14;;;;;;;2.47;2.20;;;11.60;43.90;;;;;;10259867;28;20246;-76
2023/11/21 23:56:17;;;;;;;2.30;2.10;;;11.50;43.90;;;;;;10270261;28;20863;-76
